sensor_id;sensor_type;location;lat;lon;timestamp;temperature;humidity
4697;DHT22;2362;50.780;0.292;2023-05-07T00:00:17;14.10;99.90
4697;DHT22;2362;50.780;0.292;2023-05-07T00:02:44;14.10;99.90
4697;DHT22;2362;50.780;0.292;2023-05-07T00:05:11;14.10;99.90
4697;DHT22;2362;50.780;0.292;2023-05-07T00:07:36;14.10;99.90
4697;DHT22;2362;50.780;0.292;2023-05-07T00:10:03;14.10;99.90
4697;DHT22;2362;50.780;0.292;2023-05-07T00:12:29;14.10;99.90
4697;DHT22;2362;50.780;0.292;2023-05-07T00:14:57;14.10;99.90
4697;DHT22;2362;50.780;0.292;2023-05-07T00:17:24;14.10;99.90
4697;DHT22;2362;50.780;0.292;2023-05-07T00:19:50;14.10;99.90
4697;DHT22;2362;50.780;0.292;2023-05-07T00:22:15;14.00;99.90
4697;DHT22;2362;50.780;0.292;2023-05-07T00:24:41;14.00;99.90
4697;DHT22;2362;50.780;0.292;2023-05-07T00:27:06;13.90;99.90
4697;DHT22;2362;50.780;0.292;2023-05-07T00:29:32;13.80;99.90
4697;DHT22;2362;50.780;0.292;2023-05-07T00:31:58;13.80;99.90
4697;DHT22;2362;50.780;0.292;2023-05-07T00:34:23;13.70;99.90
4697;DHT22;2362;50.780;0.292;2023-05-07T00:36:49;13.60;99.90
4697;DHT22;2362;50.780;0.292;2023-05-07T00:39:15;13.50;99.90
4697;DHT22;2362;50.780;0.292;2023-05-07T00:41:40;13.50;99.90
4697;DHT22;2362;50.780;0.292;2023-05-07T00:44:06;13.50;99.90
4697;DHT22;2362;50.780;0.292;2023-05-07T00:46:33;13.40;99.90
4697;DHT22;2362;50.780;0.292;2023-05-07T00:48:59;13.40;99.90
4697;DHT22;2362;50.780;0.292;2023-05-07T00:51:26;13.40;99.90
4697;DHT22;2362;50.780;0.292;2023-05-07T00:53:53;13.50;99.90
4697;DHT22;2362;50.780;0.292;2023-05-07T00:56:22;13.60;99.90
4697;DHT22;2362;50.780;0.292;2023-05-07T00:58:49;13.60;99.90
4697;DHT22;2362;50.780;0.292;2023-05-07T01:01:15;13.70;99.90
4697;DHT22;2362;50.780;0.292;2023-05-07T01:03:43;13.70;99.90
4697;DHT22;2362;50.780;0.292;2023-05-07T01:06:10;13.80;99.90
4697;DHT22;2362;50.780;0.292;2023-05-07T01:08:39;13.70;99.90
4697;DHT22;2362;50.780;0.292;2023-05-07T01:11:06;13.70;99.90
4697;DHT22;2362;50.780;0.292;2023-05-07T01:13:33;13.70;99.90
4697;DHT22;2362;50.780;0.292;2023-05-07T01:16:00;13.70;99.90
4697;DHT22;2362;50.780;0.292;2023-05-07T01:18:26;13.70;99.90
4697;DHT22;2362;50.780;0.292;2023-05-07T01:21:17;13.70;99.90
4697;DHT22;2362;50.780;0.292;2023-05-07T01:24:08;13.70;99.90
4697;DHT22;2362;50.780;0.292;2023-05-07T01:26:39;13.80;99.90
4697;DHT22;2362;50.780;0.292;2023-05-07T01:29:05;13.80;99.90
4697;DHT22;2362;50.780;0.292;2023-05-07T01:31:32;13.80;99.90
4697;DHT22;2362;50.780;0.292;2023-05-07T01:33:59;13.80;99.90
4697;DHT22;2362;50.780;0.292;2023-05-07T01:36:27;13.80;99.90
4697;DHT22;2362;50.780;0.292;2023-05-07T01:38:54;13.80;99.90
4697;DHT22;2362;50.780;0.292;2023-05-07T01:41:23;13.80;99.90
4697;DHT22;2362;50.780;0.292;2023-05-07T01:43:50;13.80;99.90
4697;DHT22;2362;50.780;0.292;2023-05-07T01:46:17;13.90;99.90
4697;DHT22;2362;50.780;0.292;2023-05-07T01:48:45;13.90;99.90
4697;DHT22;2362;50.780;0.292;2023-05-07T01:51:11;13.90;99.90
4697;DHT22;2362;50.780;0.292;2023-05-07T01:53:39;13.90;99.90
4697;DHT22;2362;50.780;0.292;2023-05-07T01:56:06;13.90;99.90
4697;DHT22;2362;50.780;0.292;2023-05-07T01:58:32;14.00;99.90
4697;DHT22;2362;50.780;0.292;2023-05-07T02:00:57;14.00;99.90
4697;DHT22;2362;50.780;0.292;2023-05-07T02:03:23;14.00;99.90
4697;DHT22;2362;50.780;0.292;2023-05-07T02:05:49;14.00;99.90
4697;DHT22;2362;50.780;0.292;2023-05-07T02:08:14;14.00;99.90
4697;DHT22;2362;50.780;0.292;2023-05-07T02:10:40;14.00;99.90
4697;DHT22;2362;50.780;0.292;2023-05-07T02:13:06;14.00;99.90
4697;DHT22;2362;50.780;0.292;2023-05-07T02:15:32;13.90;99.90
4697;DHT22;2362;50.780;0.292;2023-05-07T02:18:00;14.00;99.90
4697;DHT22;2362;50.780;0.292;2023-05-07T02:20:25;14.10;99.90
4697;DHT22;2362;50.780;0.292;2023-05-07T02:22:51;14.10;99.90
4697;DHT22;2362;50.780;0.292;2023-05-07T02:25:17;14.10;99.90
4697;DHT22;2362;50.780;0.292;2023-05-07T02:27:42;14.00;99.90
4697;DHT22;2362;50.780;0.292;2023-05-07T02:30:09;14.10;99.90
4697;DHT22;2362;50.780;0.292;2023-05-07T02:32:35;14.10;99.90
4697;DHT22;2362;50.780;0.292;2023-05-07T02:35:01;14.10;99.90
4697;DHT22;2362;50.780;0.292;2023-05-07T02:37:27;14.10;99.90
4697;DHT22;2362;50.780;0.292;2023-05-07T02:39:52;14.10;99.90
4697;DHT22;2362;50.780;0.292;2023-05-07T02:42:18;14.10;99.90
4697;DHT22;2362;50.780;0.292;2023-05-07T02:44:43;14.10;99.90
4697;DHT22;2362;50.780;0.292;2023-05-07T02:47:09;14.00;99.90
4697;DHT22;2362;50.780;0.292;2023-05-07T02:49:35;13.90;99.90
4697;DHT22;2362;50.780;0.292;2023-05-07T02:52:01;13.90;99.90
4697;DHT22;2362;50.780;0.292;2023-05-07T02:54:26;13.90;99.90
4697;DHT22;2362;50.780;0.292;2023-05-07T02:56:52;13.80;99.90
4697;DHT22;2362;50.780;0.292;2023-05-07T02:59:18;13.60;99.90
4697;DHT22;2362;50.780;0.292;2023-05-07T03:01:47;13.60;99.90
4697;DHT22;2362;50.780;0.292;2023-05-07T03:04:13;13.60;99.90
4697;DHT22;2362;50.780;0.292;2023-05-07T03:06:39;13.60;99.90
4697;DHT22;2362;50.780;0.292;2023-05-07T03:09:05;13.60;99.90
4697;DHT22;2362;50.780;0.292;2023-05-07T03:11:30;13.70;99.90
4697;DHT22;2362;50.780;0.292;2023-05-07T03:13:56;13.70;99.90
4697;DHT22;2362;50.780;0.292;2023-05-07T03:16:22;13.70;99.90
4697;DHT22;2362;50.780;0.292;2023-05-07T03:18:47;13.60;99.90
4697;DHT22;2362;50.780;0.292;2023-05-07T03:21:13;13.60;99.90
4697;DHT22;2362;50.780;0.292;2023-05-07T03:23:39;13.60;99.90
4697;DHT22;2362;50.780;0.292;2023-05-07T03:26:04;13.60;99.90
4697;DHT22;2362;50.780;0.292;2023-05-07T03:28:30;13.60;99.90
4697;DHT22;2362;50.780;0.292;2023-05-07T03:30:56;13.60;99.90
4697;DHT22;2362;50.780;0.292;2023-05-07T03:33:22;13.50;99.90
4697;DHT22;2362;50.780;0.292;2023-05-07T03:35:48;13.50;99.90
4697;DHT22;2362;50.780;0.292;2023-05-07T03:38:13;13.50;99.90
4697;DHT22;2362;50.780;0.292;2023-05-07T03:40:39;13.30;99.90
4697;DHT22;2362;50.780;0.292;2023-05-07T03:43:05;13.20;99.90
4697;DHT22;2362;50.780;0.292;2023-05-07T03:45:30;13.10;99.90
4697;DHT22;2362;50.780;0.292;2023-05-07T03:47:56;13.10;99.90
4697;DHT22;2362;50.780;0.292;2023-05-07T03:50:22;13.00;99.90
4697;DHT22;2362;50.780;0.292;2023-05-07T03:52:47;12.90;99.90
4697;DHT22;2362;50.780;0.292;2023-05-07T03:55:13;12.90;99.90
4697;DHT22;2362;50.780;0.292;2023-05-07T03:57:39;12.80;99.90
4697;DHT22;2362;50.780;0.292;2023-05-07T04:00:05;12.80;99.90
4697;DHT22;2362;50.780;0.292;2023-05-07T04:02:32;12.80;99.90
4697;DHT22;2362;50.780;0.292;2023-05-07T04:04:58;12.80;99.90
4697;DHT22;2362;50.780;0.292;2023-05-07T04:07:24;12.90;99.90
4697;DHT22;2362;50.780;0.292;2023-05-07T04:09:49;12.80;99.90
4697;DHT22;2362;50.780;0.292;2023-05-07T04:12:15;12.80;99.90
4697;DHT22;2362;50.780;0.292;2023-05-07T04:14:41;12.80;99.90
4697;DHT22;2362;50.780;0.292;2023-05-07T04:17:06;12.90;99.90
4697;DHT22;2362;50.780;0.292;2023-05-07T04:19:35;12.90;99.90
4697;DHT22;2362;50.780;0.292;2023-05-07T04:22:00;12.90;99.90
4697;DHT22;2362;50.780;0.292;2023-05-07T04:24:26;12.90;99.90
4697;DHT22;2362;50.780;0.292;2023-05-07T04:26:52;12.80;99.90
4697;DHT22;2362;50.780;0.292;2023-05-07T04:29:18;12.80;99.90
4697;DHT22;2362;50.780;0.292;2023-05-07T04:31:44;12.80;99.90
4697;DHT22;2362;50.780;0.292;2023-05-07T04:34:13;12.80;99.90
4697;DHT22;2362;50.780;0.292;2023-05-07T04:36:39;12.80;99.90
4697;DHT22;2362;50.780;0.292;2023-05-07T04:39:05;12.80;99.90
4697;DHT22;2362;50.780;0.292;2023-05-07T04:41:32;12.80;99.90
4697;DHT22;2362;50.780;0.292;2023-05-07T04:43:57;12.90;99.90
4697;DHT22;2362;50.780;0.292;2023-05-07T04:46:24;13.00;99.90
4697;DHT22;2362;50.780;0.292;2023-05-07T04:48:50;13.00;99.90
4697;DHT22;2362;50.780;0.292;2023-05-07T04:51:16;13.00;99.90
4697;DHT22;2362;50.780;0.292;2023-05-07T04:53:42;13.10;99.90
4697;DHT22;2362;50.780;0.292;2023-05-07T04:56:08;13.00;99.90
4697;DHT22;2362;50.780;0.292;2023-05-07T04:58:34;13.00;99.90
4697;DHT22;2362;50.780;0.292;2023-05-07T05:01:00;12.90;99.90
4697;DHT22;2362;50.780;0.292;2023-05-07T05:03:25;12.90;99.90
4697;DHT22;2362;50.780;0.292;2023-05-07T05:05:51;12.90;99.90
4697;DHT22;2362;50.780;0.292;2023-05-07T05:08:18;12.90;99.90
4697;DHT22;2362;50.780;0.292;2023-05-07T05:10:43;12.80;99.90
4697;DHT22;2362;50.780;0.292;2023-05-07T05:13:09;12.80;99.90
4697;DHT22;2362;50.780;0.292;2023-05-07T05:15:38;12.80;99.90
4697;DHT22;2362;50.780;0.292;2023-05-07T05:18:04;12.80;99.90
4697;DHT22;2362;50.780;0.292;2023-05-07T05:20:29;12.80;99.90
4697;DHT22;2362;50.780;0.292;2023-05-07T05:22:55;12.90;99.90
4697;DHT22;2362;50.780;0.292;2023-05-07T05:25:21;12.80;99.90
4697;DHT22;2362;50.780;0.292;2023-05-07T05:27:49;12.80;99.90
4697;DHT22;2362;50.780;0.292;2023-05-07T05:30:15;12.80;99.90
4697;DHT22;2362;50.780;0.292;2023-05-07T05:32:40;12.80;99.90
4697;DHT22;2362;50.780;0.292;2023-05-07T05:35:06;12.80;99.90
4697;DHT22;2362;50.780;0.292;2023-05-07T05:37:32;12.80;99.90
4697;DHT22;2362;50.780;0.292;2023-05-07T05:40:26;12.70;99.90
4697;DHT22;2362;50.780;0.292;2023-05-07T05:42:51;12.70;99.90
4697;DHT22;2362;50.780;0.292;2023-05-07T05:45:17;12.60;99.90
4697;DHT22;2362;50.780;0.292;2023-05-07T05:47:43;12.50;99.90
4697;DHT22;2362;50.780;0.292;2023-05-07T05:50:08;12.50;99.90
4697;DHT22;2362;50.780;0.292;2023-05-07T05:52:34;12.60;99.90
4697;DHT22;2362;50.780;0.292;2023-05-07T05:55:00;12.60;99.90
4697;DHT22;2362;50.780;0.292;2023-05-07T05:57:25;12.60;99.90
4697;DHT22;2362;50.780;0.292;2023-05-07T06:00:17;12.70;99.90
4697;DHT22;2362;50.780;0.292;2023-05-07T06:02:43;13.00;99.90
4697;DHT22;2362;50.780;0.292;2023-05-07T06:05:09;13.00;99.90
4697;DHT22;2362;50.780;0.292;2023-05-07T06:07:35;12.90;99.90
4697;DHT22;2362;50.780;0.292;2023-05-07T06:10:03;12.70;99.90
4697;DHT22;2362;50.780;0.292;2023-05-07T06:12:29;12.80;99.90
4697;DHT22;2362;50.780;0.292;2023-05-07T06:14:55;12.80;99.90
4697;DHT22;2362;50.780;0.292;2023-05-07T06:17:21;12.80;99.90
4697;DHT22;2362;50.780;0.292;2023-05-07T06:19:46;12.80;99.90
4697;DHT22;2362;50.780;0.292;2023-05-07T06:22:12;12.90;99.90
4697;DHT22;2362;50.780;0.292;2023-05-07T06:24:38;12.90;99.90
4697;DHT22;2362;50.780;0.292;2023-05-07T06:27:03;12.90;99.90
4697;DHT22;2362;50.780;0.292;2023-05-07T06:29:29;12.90;99.90
4697;DHT22;2362;50.780;0.292;2023-05-07T06:31:56;12.90;99.90
4697;DHT22;2362;50.780;0.292;2023-05-07T06:34:31;13.00;99.90
4697;DHT22;2362;50.780;0.292;2023-05-07T06:36:56;12.90;99.90
4697;DHT22;2362;50.780;0.292;2023-05-07T06:39:22;12.80;99.90
4697;DHT22;2362;50.780;0.292;2023-05-07T06:41:48;12.90;99.90
4697;DHT22;2362;50.780;0.292;2023-05-07T06:44:13;12.90;99.90
4697;DHT22;2362;50.780;0.292;2023-05-07T06:47:04;13.10;99.90
4697;DHT22;2362;50.780;0.292;2023-05-07T06:49:30;13.30;99.90
4697;DHT22;2362;50.780;0.292;2023-05-07T06:51:56;13.20;99.90
4697;DHT22;2362;50.780;0.292;2023-05-07T06:54:22;13.20;99.90
4697;DHT22;2362;50.780;0.292;2023-05-07T06:56:48;13.10;99.90
4697;DHT22;2362;50.780;0.292;2023-05-07T06:59:14;13.30;99.90
4697;DHT22;2362;50.780;0.292;2023-05-07T07:01:39;13.30;99.90
4697;DHT22;2362;50.780;0.292;2023-05-07T07:04:05;13.30;99.90
4697;DHT22;2362;50.780;0.292;2023-05-07T07:06:31;13.20;99.90
4697;DHT22;2362;50.780;0.292;2023-05-07T07:08:58;13.20;99.90
4697;DHT22;2362;50.780;0.292;2023-05-07T07:11:24;13.20;99.90
4697;DHT22;2362;50.780;0.292;2023-05-07T07:13:49;13.20;99.90
4697;DHT22;2362;50.780;0.292;2023-05-07T07:16:16;13.20;99.90
4697;DHT22;2362;50.780;0.292;2023-05-07T07:18:42;13.30;99.90
4697;DHT22;2362;50.780;0.292;2023-05-07T07:21:07;13.20;99.90
4697;DHT22;2362;50.780;0.292;2023-05-07T07:23:33;13.30;99.90
4697;DHT22;2362;50.780;0.292;2023-05-07T07:25:58;13.30;99.90
4697;DHT22;2362;50.780;0.292;2023-05-07T07:28:24;13.40;99.90
4697;DHT22;2362;50.780;0.292;2023-05-07T07:30:50;13.50;99.90
4697;DHT22;2362;50.780;0.292;2023-05-07T07:33:15;13.50;99.90
4697;DHT22;2362;50.780;0.292;2023-05-07T07:35:41;13.50;99.90
4697;DHT22;2362;50.780;0.292;2023-05-07T07:38:07;13.40;99.90
4697;DHT22;2362;50.780;0.292;2023-05-07T07:40:36;13.40;99.90
4697;DHT22;2362;50.780;0.292;2023-05-07T07:43:02;13.60;99.90
4697;DHT22;2362;50.780;0.292;2023-05-07T07:45:28;13.70;99.90
4697;DHT22;2362;50.780;0.292;2023-05-07T07:47:54;13.70;99.90
4697;DHT22;2362;50.780;0.292;2023-05-07T07:50:20;13.70;99.90
4697;DHT22;2362;50.780;0.292;2023-05-07T07:52:46;13.90;99.90
4697;DHT22;2362;50.780;0.292;2023-05-07T07:55:40;14.00;99.90
4697;DHT22;2362;50.780;0.292;2023-05-07T07:58:06;13.80;99.90
4697;DHT22;2362;50.780;0.292;2023-05-07T08:00:31;13.60;99.90
4697;DHT22;2362;50.780;0.292;2023-05-07T08:02:57;13.70;99.90
4697;DHT22;2362;50.780;0.292;2023-05-07T08:05:23;13.80;99.90
4697;DHT22;2362;50.780;0.292;2023-05-07T08:07:48;13.70;99.90
4697;DHT22;2362;50.780;0.292;2023-05-07T08:10:18;13.70;99.90
4697;DHT22;2362;50.780;0.292;2023-05-07T08:12:48;13.80;99.90
4697;DHT22;2362;50.780;0.292;2023-05-07T08:15:15;13.80;99.90
4697;DHT22;2362;50.780;0.292;2023-05-07T08:17:41;13.70;99.90
4697;DHT22;2362;50.780;0.292;2023-05-07T08:20:07;13.80;99.90
4697;DHT22;2362;50.780;0.292;2023-05-07T08:22:35;13.70;99.90
4697;DHT22;2362;50.780;0.292;2023-05-07T08:25:01;13.90;99.90
4697;DHT22;2362;50.780;0.292;2023-05-07T08:27:26;14.00;99.90
4697;DHT22;2362;50.780;0.292;2023-05-07T08:29:52;14.00;99.90
4697;DHT22;2362;50.780;0.292;2023-05-07T08:32:18;13.80;99.90
4697;DHT22;2362;50.780;0.292;2023-05-07T08:34:44;13.80;99.90
4697;DHT22;2362;50.780;0.292;2023-05-07T08:37:10;13.80;99.90
4697;DHT22;2362;50.780;0.292;2023-05-07T08:39:35;13.90;99.90
4697;DHT22;2362;50.780;0.292;2023-05-07T08:42:03;14.00;99.90
4697;DHT22;2362;50.780;0.292;2023-05-07T08:44:33;13.90;99.90
4697;DHT22;2362;50.780;0.292;2023-05-07T08:47:01;13.80;99.90
4697;DHT22;2362;50.780;0.292;2023-05-07T08:49:27;13.80;99.90
4697;DHT22;2362;50.780;0.292;2023-05-07T08:51:53;13.90;99.90
4697;DHT22;2362;50.780;0.292;2023-05-07T08:54:20;14.00;99.90
4697;DHT22;2362;50.780;0.292;2023-05-07T08:56:46;13.90;99.90
4697;DHT22;2362;50.780;0.292;2023-05-07T08:59:12;14.00;99.90
4697;DHT22;2362;50.780;0.292;2023-05-07T09:01:38;13.90;99.90
4697;DHT22;2362;50.780;0.292;2023-05-07T09:04:04;14.10;99.90
4697;DHT22;2362;50.780;0.292;2023-05-07T09:06:31;14.10;99.90
4697;DHT22;2362;50.780;0.292;2023-05-07T09:08:57;14.20;99.90
4697;DHT22;2362;50.780;0.292;2023-05-07T09:11:24;14.30;99.90
4697;DHT22;2362;50.780;0.292;2023-05-07T09:13:54;14.60;99.90
4697;DHT22;2362;50.780;0.292;2023-05-07T09:16:21;14.80;99.90
4697;DHT22;2362;50.780;0.292;2023-05-07T09:18:51;14.90;99.90
4697;DHT22;2362;50.780;0.292;2023-05-07T09:21:18;14.90;99.90
4697;DHT22;2362;50.780;0.292;2023-05-07T09:23:44;15.00;99.90
4697;DHT22;2362;50.780;0.292;2023-05-07T09:26:10;14.90;99.90
4697;DHT22;2362;50.780;0.292;2023-05-07T09:28:40;14.90;99.90
4697;DHT22;2362;50.780;0.292;2023-05-07T09:31:07;15.00;99.90
4697;DHT22;2362;50.780;0.292;2023-05-07T09:33:33;15.10;99.90
4697;DHT22;2362;50.780;0.292;2023-05-07T09:36:08;15.30;99.90
4697;DHT22;2362;50.780;0.292;2023-05-07T09:38:35;15.20;99.90
4697;DHT22;2362;50.780;0.292;2023-05-07T09:41:11;15.20;99.90
4697;DHT22;2362;50.780;0.292;2023-05-07T09:43:39;15.20;99.90
4697;DHT22;2362;50.780;0.292;2023-05-07T09:46:14;15.30;99.90
4697;DHT22;2362;50.780;0.292;2023-05-07T09:48:41;15.00;99.90
4697;DHT22;2362;50.780;0.292;2023-05-07T09:51:29;15.10;99.90
4697;DHT22;2362;50.780;0.292;2023-05-07T09:53:57;15.10;99.90
4697;DHT22;2362;50.780;0.292;2023-05-07T09:56:24;15.20;99.90
4697;DHT22;2362;50.780;0.292;2023-05-07T09:58:52;15.20;99.90
4697;DHT22;2362;50.780;0.292;2023-05-07T10:01:19;15.30;99.90
4697;DHT22;2362;50.780;0.292;2023-05-07T10:03:48;15.50;99.90
4697;DHT22;2362;50.780;0.292;2023-05-07T10:06:15;15.60;99.90
4697;DHT22;2362;50.780;0.292;2023-05-07T10:08:43;15.70;99.90
4697;DHT22;2362;50.780;0.292;2023-05-07T10:11:09;15.60;99.90
4697;DHT22;2362;50.780;0.292;2023-05-07T10:13:35;15.80;99.90
4697;DHT22;2362;50.780;0.292;2023-05-07T10:16:04;15.90;99.90
4697;DHT22;2362;50.780;0.292;2023-05-07T10:18:31;16.00;99.90
4697;DHT22;2362;50.780;0.292;2023-05-07T10:21:07;16.30;99.90
4697;DHT22;2362;50.780;0.292;2023-05-07T10:23:33;16.20;99.90
4697;DHT22;2362;50.780;0.292;2023-05-07T10:26:02;16.10;99.90
4697;DHT22;2362;50.780;0.292;2023-05-07T10:28:30;16.20;99.90
4697;DHT22;2362;50.780;0.292;2023-05-07T10:31:04;16.10;99.90
4697;DHT22;2362;50.780;0.292;2023-05-07T10:33:34;16.30;99.90
4697;DHT22;2362;50.780;0.292;2023-05-07T10:36:01;16.50;99.90
4697;DHT22;2362;50.780;0.292;2023-05-07T10:38:30;16.40;99.90
4697;DHT22;2362;50.780;0.292;2023-05-07T10:40:56;16.40;99.90
4697;DHT22;2362;50.780;0.292;2023-05-07T10:43:22;16.30;99.90
4697;DHT22;2362;50.780;0.292;2023-05-07T10:46:23;16.30;99.90
4697;DHT22;2362;50.780;0.292;2023-05-07T10:51:32;16.50;99.90
4697;DHT22;2362;50.780;0.292;2023-05-07T10:56:39;16.60;99.90
4697;DHT22;2362;50.780;0.292;2023-05-07T11:02:00;17.10;99.90
4697;DHT22;2362;50.780;0.292;2023-05-07T11:04:29;17.10;99.90
4697;DHT22;2362;50.780;0.292;2023-05-07T11:15:06;17.40;99.90
4697;DHT22;2362;50.780;0.292;2023-05-07T11:17:32;17.30;99.90
4697;DHT22;2362;50.780;0.292;2023-05-07T11:20:01;17.30;99.90
4697;DHT22;2362;50.780;0.292;2023-05-07T11:25:05;17.10;99.90
4697;DHT22;2362;50.780;0.292;2023-05-07T11:27:32;17.00;99.90
4697;DHT22;2362;50.780;0.292;2023-05-07T11:29:58;17.00;99.90
4697;DHT22;2362;50.780;0.292;2023-05-07T11:32:24;17.00;99.90
4697;DHT22;2362;50.780;0.292;2023-05-07T11:34:54;17.00;99.90
4697;DHT22;2362;50.780;0.292;2023-05-07T11:37:21;16.90;99.90
4697;DHT22;2362;50.780;0.292;2023-05-07T11:39:47;17.10;99.90
4697;DHT22;2362;50.780;0.292;2023-05-07T11:42:29;16.90;99.90
4697;DHT22;2362;50.780;0.292;2023-05-07T11:44:55;16.80;99.90
4697;DHT22;2362;50.780;0.292;2023-05-07T11:47:21;16.90;99.90
4697;DHT22;2362;50.780;0.292;2023-05-07T11:49:52;17.20;99.90
4697;DHT22;2362;50.780;0.292;2023-05-07T11:52:19;17.40;99.90
4697;DHT22;2362;50.780;0.292;2023-05-07T11:54:56;17.50;99.90
4697;DHT22;2362;50.780;0.292;2023-05-07T11:57:23;17.40;99.90
4697;DHT22;2362;50.780;0.292;2023-05-07T11:59:56;17.50;99.90
4697;DHT22;2362;50.780;0.292;2023-05-07T12:02:22;17.70;99.90
4697;DHT22;2362;50.780;0.292;2023-05-07T12:04:47;17.70;99.90
4697;DHT22;2362;50.780;0.292;2023-05-07T12:07:14;17.40;99.90
4697;DHT22;2362;50.780;0.292;2023-05-07T12:09:41;17.50;99.90
4697;DHT22;2362;50.780;0.292;2023-05-07T12:12:07;17.40;99.90
4697;DHT22;2362;50.780;0.292;2023-05-07T12:14:36;17.60;99.90
4697;DHT22;2362;50.780;0.292;2023-05-07T12:17:03;17.70;99.90
4697;DHT22;2362;50.780;0.292;2023-05-07T12:19:30;17.80;99.90
4697;DHT22;2362;50.780;0.292;2023-05-07T12:21:56;17.80;99.90
4697;DHT22;2362;50.780;0.292;2023-05-07T12:24:22;17.80;99.90
4697;DHT22;2362;50.780;0.292;2023-05-07T12:26:48;17.70;99.90
4697;DHT22;2362;50.780;0.292;2023-05-07T12:29:14;17.60;99.90
4697;DHT22;2362;50.780;0.292;2023-05-07T12:31:43;17.40;99.90
4697;DHT22;2362;50.780;0.292;2023-05-07T12:34:11;17.40;99.90
4697;DHT22;2362;50.780;0.292;2023-05-07T12:36:38;17.60;99.90
4697;DHT22;2362;50.780;0.292;2023-05-07T12:39:07;17.50;99.90
4697;DHT22;2362;50.780;0.292;2023-05-07T12:41:56;17.70;99.90
4697;DHT22;2362;50.780;0.292;2023-05-07T12:44:22;17.50;99.90
4697;DHT22;2362;50.780;0.292;2023-05-07T12:46:49;17.40;99.90
4697;DHT22;2362;50.780;0.292;2023-05-07T12:49:15;17.70;99.90
4697;DHT22;2362;50.780;0.292;2023-05-07T12:51:41;17.50;99.90
4697;DHT22;2362;50.780;0.292;2023-05-07T12:54:07;17.50;99.90
4697;DHT22;2362;50.780;0.292;2023-05-07T12:56:36;17.60;99.90
4697;DHT22;2362;50.780;0.292;2023-05-07T12:59:02;17.70;99.90
4697;DHT22;2362;50.780;0.292;2023-05-07T13:01:29;17.80;99.90
4697;DHT22;2362;50.780;0.292;2023-05-07T13:03:56;18.10;99.90
4697;DHT22;2362;50.780;0.292;2023-05-07T13:06:21;18.30;99.90
4697;DHT22;2362;50.780;0.292;2023-05-07T13:08:47;18.60;99.90
4697;DHT22;2362;50.780;0.292;2023-05-07T13:11:13;18.80;99.90
4697;DHT22;2362;50.780;0.292;2023-05-07T13:13:40;18.90;99.90
4697;DHT22;2362;50.780;0.292;2023-05-07T13:16:07;18.60;99.90
4697;DHT22;2362;50.780;0.292;2023-05-07T13:18:34;18.50;99.90
4697;DHT22;2362;50.780;0.292;2023-05-07T13:21:03;18.30;99.90
4697;DHT22;2362;50.780;0.292;2023-05-07T13:23:29;18.40;99.90
4697;DHT22;2362;50.780;0.292;2023-05-07T13:25:55;18.60;99.90
4697;DHT22;2362;50.780;0.292;2023-05-07T13:28:21;18.70;99.90
4697;DHT22;2362;50.780;0.292;2023-05-07T13:30:47;18.50;99.90
4697;DHT22;2362;50.780;0.292;2023-05-07T13:33:13;18.30;99.90
4697;DHT22;2362;50.780;0.292;2023-05-07T13:35:40;18.10;99.90
4697;DHT22;2362;50.780;0.292;2023-05-07T13:38:05;18.20;99.90
4697;DHT22;2362;50.780;0.292;2023-05-07T13:40:31;18.30;99.90
4697;DHT22;2362;50.780;0.292;2023-05-07T13:42:58;18.20;99.90
4697;DHT22;2362;50.780;0.292;2023-05-07T13:45:25;18.50;99.90
4697;DHT22;2362;50.780;0.292;2023-05-07T13:47:51;18.70;99.90
4697;DHT22;2362;50.780;0.292;2023-05-07T13:50:17;18.80;99.90
4697;DHT22;2362;50.780;0.292;2023-05-07T13:52:44;18.80;99.90
4697;DHT22;2362;50.780;0.292;2023-05-07T13:55:41;18.90;99.90
4697;DHT22;2362;50.780;0.292;2023-05-07T13:58:07;19.00;99.90
4697;DHT22;2362;50.780;0.292;2023-05-07T14:00:33;18.90;99.90
4697;DHT22;2362;50.780;0.292;2023-05-07T14:02:58;18.60;99.90
4697;DHT22;2362;50.780;0.292;2023-05-07T14:05:24;18.60;99.90
4697;DHT22;2362;50.780;0.292;2023-05-07T14:07:51;18.70;99.90
4697;DHT22;2362;50.780;0.292;2023-05-07T14:10:18;18.70;99.90
4697;DHT22;2362;50.780;0.292;2023-05-07T14:12:44;18.70;99.90
4697;DHT22;2362;50.780;0.292;2023-05-07T14:15:10;18.50;99.90
4697;DHT22;2362;50.780;0.292;2023-05-07T14:17:36;18.40;99.90
4697;DHT22;2362;50.780;0.292;2023-05-07T14:20:02;18.10;99.90
4697;DHT22;2362;50.780;0.292;2023-05-07T14:22:28;18.00;99.90
4697;DHT22;2362;50.780;0.292;2023-05-07T14:24:54;18.00;99.90
4697;DHT22;2362;50.780;0.292;2023-05-07T14:27:19;17.90;99.90
4697;DHT22;2362;50.780;0.292;2023-05-07T14:30:11;18.00;99.90
4697;DHT22;2362;50.780;0.292;2023-05-07T14:32:36;18.20;99.90
4697;DHT22;2362;50.780;0.292;2023-05-07T14:35:02;18.00;99.90
4697;DHT22;2362;50.780;0.292;2023-05-07T14:37:28;18.10;99.90
4697;DHT22;2362;50.780;0.292;2023-05-07T14:39:53;18.40;99.90
4697;DHT22;2362;50.780;0.292;2023-05-07T14:42:19;18.60;99.90
4697;DHT22;2362;50.780;0.292;2023-05-07T14:44:45;18.60;99.90
4697;DHT22;2362;50.780;0.292;2023-05-07T14:47:13;18.60;99.90
4697;DHT22;2362;50.780;0.292;2023-05-07T14:49:38;18.50;99.90
4697;DHT22;2362;50.780;0.292;2023-05-07T14:52:06;18.60;99.90
4697;DHT22;2362;50.780;0.292;2023-05-07T14:54:34;18.50;99.90
4697;DHT22;2362;50.780;0.292;2023-05-07T14:57:01;18.20;99.90
4697;DHT22;2362;50.780;0.292;2023-05-07T14:59:27;18.20;99.90
4697;DHT22;2362;50.780;0.292;2023-05-07T15:01:52;18.00;99.90
4697;DHT22;2362;50.780;0.292;2023-05-07T15:04:19;17.80;99.90
4697;DHT22;2362;50.780;0.292;2023-05-07T15:06:45;17.80;99.90
4697;DHT22;2362;50.780;0.292;2023-05-07T15:09:11;17.60;99.90
4697;DHT22;2362;50.780;0.292;2023-05-07T15:11:37;17.70;99.90
4697;DHT22;2362;50.780;0.292;2023-05-07T15:14:03;17.70;99.90
4697;DHT22;2362;50.780;0.292;2023-05-07T15:16:28;17.60;99.90
4697;DHT22;2362;50.780;0.292;2023-05-07T15:18:54;17.70;99.90
4697;DHT22;2362;50.780;0.292;2023-05-07T15:21:20;17.80;99.90
4697;DHT22;2362;50.780;0.292;2023-05-07T15:23:45;17.80;99.90
4697;DHT22;2362;50.780;0.292;2023-05-07T15:26:11;17.90;99.90
4697;DHT22;2362;50.780;0.292;2023-05-07T15:28:37;17.90;99.90
4697;DHT22;2362;50.780;0.292;2023-05-07T15:31:03;18.10;99.90
4697;DHT22;2362;50.780;0.292;2023-05-07T15:33:30;18.10;99.90
4697;DHT22;2362;50.780;0.292;2023-05-07T15:35:56;18.20;99.90
4697;DHT22;2362;50.780;0.292;2023-05-07T15:38:25;18.20;99.90
4697;DHT22;2362;50.780;0.292;2023-05-07T15:40:51;18.10;99.90
4697;DHT22;2362;50.780;0.292;2023-05-07T15:43:16;18.10;99.90
4697;DHT22;2362;50.780;0.292;2023-05-07T15:45:43;18.10;99.90
4697;DHT22;2362;50.780;0.292;2023-05-07T15:48:11;18.20;99.90
4697;DHT22;2362;50.780;0.292;2023-05-07T15:50:37;18.10;99.90
4697;DHT22;2362;50.780;0.292;2023-05-07T15:53:04;18.10;99.90
4697;DHT22;2362;50.780;0.292;2023-05-07T15:55:30;17.90;99.90
4697;DHT22;2362;50.780;0.292;2023-05-07T15:57:56;17.80;99.90
4697;DHT22;2362;50.780;0.292;2023-05-07T16:00:24;17.80;99.90
4697;DHT22;2362;50.780;0.292;2023-05-07T16:02:52;17.80;99.90
4697;DHT22;2362;50.780;0.292;2023-05-07T16:05:17;17.60;99.90
4697;DHT22;2362;50.780;0.292;2023-05-07T16:07:43;17.40;99.90
4697;DHT22;2362;50.780;0.292;2023-05-07T16:10:09;17.20;99.90
4697;DHT22;2362;50.780;0.292;2023-05-07T16:12:35;17.10;99.90
4697;DHT22;2362;50.780;0.292;2023-05-07T16:15:01;17.10;99.90
4697;DHT22;2362;50.780;0.292;2023-05-07T16:17:27;17.00;99.90
4697;DHT22;2362;50.780;0.292;2023-05-07T16:19:53;17.00;99.90